Time;durP1;ratioP1;P1;durP2;ratioP2;P2;SDS_P1;SDS_P2;PMS_P1;PMS_P2;Temp;Humidity;BMP_temperature;BMP_pressure;BME280_temperature;BME280_humidity;BME280_pressure;Samples;Min_cycle;Max_cycle;Signal;HPM_P1;HPM_P2
2023/05/20 00:00:49;;;;;;;2.78;1.60;;;;;;;16.35;44.18;100712.38;5054528;28;20053;-81
2023/05/20 00:03:16;;;;;;;3.28;1.88;;;;;;;16.34;43.80;100705.34;5053546;28;20378;-81
2023/05/20 00:05:43;;;;;;;3.22;1.80;;;;;;;16.32;43.83;100717.88;5053760;28;20136;-81
2023/05/20 00:08:10;;;;;;;6.28;2.42;;;;;;;16.28;43.84;100712.78;5054030;28;20053;-81
2023/05/20 00:10:37;;;;;;;4.57;2.10;;;;;;;16.24;43.90;100715.72;5069581;28;20052;-81
2023/05/20 00:13:05;;;;;;;3.42;1.63;;;;;;;16.21;43.89;100713.25;5054248;28;20144;-81
2023/05/20 00:15:33;;;;;;;7.07;2.20;;;;;;;16.17;44.21;100714.41;5053917;28;20135;-82
2023/05/20 00:18:01;;;;;;;3.60;1.83;;;;;;;16.10;44.40;100720.13;5054006;28;20052;-81
2023/05/20 00:20:27;;;;;;;5.07;1.98;;;;;;;16.06;44.50;100717.78;5053856;28;20168;-81
2023/05/20 00:22:54;;;;;;;5.47;2.13;;;;;;;16.00;44.39;100717.22;5054060;28;20045;-81
2023/05/20 00:25:21;;;;;;;5.38;2.15;;;;;;;15.96;44.42;100718.38;5053271;28;20110;-82
2023/05/20 00:27:47;;;;;;;3.35;1.70;;;;;;;15.92;44.61;100721.31;5053906;28;20061;-81
2023/05/20 00:30:14;;;;;;;5.57;1.98;;;;;;;15.88;44.88;100725.94;5054128;28;20071;-81
2023/05/20 00:32:40;;;;;;;4.65;1.85;;;;;;;15.86;44.75;100719.88;5053779;28;20057;-82
2023/05/20 00:35:08;;;;;;;5.75;1.90;;;;;;;15.84;45.11;100719.13;5053546;28;20052;-81
2023/05/20 00:37:34;;;;;;;7.35;2.10;;;;;;;15.81;45.20;100712.22;5053045;28;20541;-81
2023/05/20 00:40:01;;;;;;;4.45;1.63;;;;;;;15.80;45.19;100713.16;5053678;28;20143;-81
2023/05/20 00:42:28;;;;;;;3.20;1.92;;;;;;;15.79;44.97;100721.22;5053816;28;20045;-81
2023/05/20 00:44:55;;;;;;;4.57;1.48;;;;;;;15.76;45.04;100706.34;5053593;28;20124;-82
2023/05/20 00:47:31;;;;;;;3.03;1.77;;;;;;;15.72;46.29;100711.00;5053005;28;20057;-81
2023/05/20 00:49:59;;;;;;;4.07;1.80;;;;;;;15.74;45.51;100709.09;5053794;28;20045;-81
2023/05/20 00:52:31;;;;;;;4.90;1.75;;;;;;;15.71;45.59;100711.97;5053199;28;20052;-81
2023/05/20 00:57:24;;;;;;;5.80;2.17;;;;;;;15.67;45.40;100709.59;5070049;23;20089;-80
2023/05/20 00:59:51;;;;;;;6.35;2.30;;;;;;;15.66;45.78;100702.59;5052978;28;20057;-79
2023/05/20 01:02:17;;;;;;;8.07;2.45;;;;;;;15.62;45.63;100705.44;5052856;28;20063;-80
2023/05/20 01:04:46;;;;;;;6.70;1.73;;;;;;;15.59;45.76;100702.13;5052559;28;20052;-79
2023/05/20 01:07:17;;;;;;;5.78;2.15;;;;;;;15.54;46.65;100698.88;5030159;28;20057;-79
2023/05/20 01:09:43;;;;;;;4.35;1.92;;;;;;;15.52;45.68;100696.34;5032609;28;20131;-80
2023/05/20 01:12:22;;;;;;;4.10;1.75;;;;;;;15.46;46.60;100696.72;5032720;28;20068;-79
2023/05/20 01:14:59;;;;;;;4.82;1.88;;;;;;;15.41;46.28;100694.38;5032494;28;20490;-79
2023/05/20 01:17:29;;;;;;;3.72;1.95;;;;;;;15.39;46.18;100692.75;5032119;28;20069;-79
2023/05/20 01:19:58;;;;;;;5.82;1.70;;;;;;;15.34;46.39;100695.69;5032289;28;20507;-79
2023/05/20 01:22:26;;;;;;;3.97;2.10;;;;;;;15.32;46.37;100692.25;5032481;28;20064;-79
2023/05/20 01:24:52;;;;;;;5.10;2.15;;;;;;;15.27;46.51;100694.34;5031977;28;20062;-79
2023/05/20 01:27:21;;;;;;;4.85;2.00;;;;;;;15.22;46.81;100695.50;5031926;28;20054;-79
2023/05/20 01:29:49;;;;;;;6.32;2.20;;;;;;;15.20;46.86;100693.88;5032265;28;20492;-79
2023/05/20 01:32:22;;;;;;;4.40;1.80;;;;;;;15.14;47.55;100700.41;5030939;28;20421;-79
2023/05/20 01:34:51;;;;;;;5.53;2.00;;;;;;;15.13;46.94;100698.72;5031981;28;20053;-79
2023/05/20 01:37:20;;;;;;;4.20;2.35;;;;;;;15.09;47.53;100705.16;5030297;28;20088;-79
2023/05/20 01:39:49;;;;;;;5.55;2.05;;;;;;;15.07;47.83;100701.75;5030927;28;20060;-79
2023/05/20 01:42:17;;;;;;;4.18;2.10;;;;;;;15.05;47.34;100698.31;5031894;28;20050;-79
2023/05/20 01:44:43;;;;;;;4.63;2.10;;;;;;;15.03;47.43;100689.63;5031829;28;20057;-79
2023/05/20 01:47:10;;;;;;;3.35;1.70;;;;;;;15.02;47.31;100690.56;5031004;28;20052;-79
2023/05/20 01:49:36;;;;;;;5.22;1.88;;;;;;;14.98;47.40;100684.59;5030595;28;20419;-79
2023/05/20 01:52:03;;;;;;;3.75;2.10;;;;;;;14.96;47.45;100684.69;5031898;28;20066;-79
2023/05/20 01:54:30;;;;;;;5.32;2.08;;;;;;;14.96;47.71;100683.84;5031767;28;20515;-79
2023/05/20 01:56:56;;;;;;;7.30;2.15;;;;;;;14.93;47.84;100679.59;5031092;28;20080;-80
2023/05/20 01:59:22;;;;;;;5.45;1.73;;;;;;;14.92;47.74;100682.31;5031562;28;20524;-80
2023/05/20 02:01:49;;;;;;;4.50;2.35;;;;;;;14.89;47.82;100674.56;5046707;28;20053;-79
2023/05/20 02:04:17;;;;;;;8.07;2.30;;;;;;;14.87;47.96;100682.59;5031658;28;20061;-79
2023/05/20 02:06:44;;;;;;;7.18;2.33;;;;;;;14.85;48.17;100685.31;5030475;28;20054;-79
2023/05/20 02:09:11;;;;;;;4.18;2.15;;;;;;;14.82;48.28;100685.53;5030227;28;20133;-79
2023/05/20 02:11:37;;;;;;;3.50;2.15;;;;;;;14.81;48.32;100685.63;5046766;28;20057;-79
2023/05/20 02:14:04;;;;;;;4.30;1.80;;;;;;;14.80;48.38;100692.72;5031284;28;20057;-80
2023/05/20 02:16:30;;;;;;;2.78;1.95;;;;;;;14.78;48.34;100686.66;5029471;28;20053;-80
2023/05/20 02:18:57;;;;;;;4.20;2.10;;;;;;;14.77;48.51;100692.88;5030258;28;20054;-79
2023/05/20 02:21:24;;;;;;;5.43;2.03;;;;;;;14.75;48.41;100688.59;5031213;28;20061;-79
2023/05/20 02:23:51;;;;;;;5.03;2.10;;;;;;;14.73;48.33;100684.25;5031194;28;20053;-79
2023/05/20 02:26:19;;;;;;;5.05;2.03;;;;;;;14.72;48.35;100690.50;5030785;28;20055;-79
2023/05/20 02:28:49;;;;;;;5.93;2.15;;;;;;;14.69;48.52;100685.38;5030524;28;20053;-79
2023/05/20 02:31:16;;;;;;;5.80;2.42;;;;;;;14.68;48.58;100682.81;5046501;28;20060;-79
2023/05/20 02:33:43;;;;;;;4.90;2.13;;;;;;;14.67;48.94;100679.31;5031137;28;20058;-79
2023/05/20 02:36:09;;;;;;;5.03;2.20;;;;;;;14.65;48.72;100683.00;5029291;28;20108;-79
2023/05/20 02:38:36;;;;;;;6.93;2.10;;;;;;;14.64;48.82;100675.97;5030578;28;20059;-80
2023/05/20 02:41:03;;;;;;;4.18;2.00;;;;;;;14.62;48.92;100673.44;5030952;28;20447;-80
2023/05/20 02:43:31;;;;;;;7.68;2.08;;;;;;;14.60;48.61;100680.63;5046156;28;20072;-79
2023/05/20 02:45:57;;;;;;;3.85;1.73;;;;;;;14.58;48.88;100671.94;5029228;28;20061;-79
2023/05/20 02:48:24;;;;;;;3.63;1.65;;;;;;;14.55;48.84;100672.94;5045573;28;20129;-79
2023/05/20 02:50:50;;;;;;;6.90;2.30;;;;;;;14.53;49.10;100676.63;5029459;28;20508;-79
2023/05/20 02:53:17;;;;;;;4.78;2.17;;;;;;;14.51;49.01;100667.91;5030776;28;20072;-79
2023/05/20 02:55:46;;;;;;;3.22;1.90;;;;;;;14.48;49.24;100682.19;5045335;28;20057;-79
2023/05/20 02:58:12;;;;;;;4.03;2.00;;;;;;;14.44;49.30;100673.56;5028875;28;20474;-80
2023/05/20 03:00:42;;;;;;;4.28;2.13;;;;;;;14.42;49.22;100674.59;5030696;28;20053;-79
2023/05/20 03:03:09;;;;;;;2.97;1.80;;;;;;;14.38;49.27;100681.00;5030752;28;20089;-79
2023/05/20 03:05:36;;;;;;;3.20;1.83;;;;;;;14.37;49.29;100682.81;5030067;28;20057;-79
2023/05/20 03:08:08;;;;;;;5.43;2.20;;;;;;;14.32;50.09;100682.25;5029693;28;20060;-79
2023/05/20 03:10:38;;;;;;;17.38;1.95;;;;;;;14.28;49.87;100680.72;5030497;28;20344;-79
2023/05/20 03:13:10;;;;;;;5.22;1.77;;;;;;;14.25;49.32;100678.25;5030682;28;20196;-79
2023/05/20 03:15:45;;;;;;;2.60;1.67;;;;;;;14.19;50.10;100677.66;5029856;28;20538;-79
2023/05/20 03:18:12;;;;;;;3.58;1.73;;;;;;;14.21;49.43;100682.88;5030005;28;20128;-79
2023/05/20 03:20:40;;;;;;;4.85;2.03;;;;;;;14.18;49.51;100680.38;5045501;28;20063;-80
2023/05/20 03:23:07;;;;;;;5.75;1.92;;;;;;;14.15;49.67;100678.78;5030132;28;20467;-79
2023/05/20 03:25:35;;;;;;;3.72;2.03;;;;;;;14.15;49.76;100677.91;5029859;28;20085;-79
2023/05/20 03:28:01;;;;;;;4.25;1.73;;;;;;;14.12;49.83;100671.00;5029569;28;20221;-79
2023/05/20 03:30:28;;;;;;;2.90;1.70;;;;;;;14.09;49.71;100660.56;5029694;28;20519;-79
2023/05/20 03:32:58;;;;;;;2.60;1.75;;;;;;;14.07;49.76;100657.19;5030134;28;20056;-79
2023/05/20 03:35:25;;;;;;;4.38;1.73;;;;;;;14.04;49.82;100673.22;5029478;28;20463;-79
2023/05/20 03:37:52;;;;;;;2.65;1.88;;;;;;;14.02;49.78;100668.00;5029953;28;20342;-79
2023/05/20 03:40:22;;;;;;;3.30;1.83;;;;;;;14.02;49.70;100672.47;5030407;28;20062;-79
2023/05/20 03:42:49;;;;;;;4.43;1.95;;;;;;;14.00;49.66;100677.00;5030175;28;20053;-79
2023/05/20 03:45:16;;;;;;;6.63;2.08;;;;;;;13.97;49.97;100670.06;5029458;28;20054;-79
2023/05/20 03:47:42;;;;;;;3.75;2.25;;;;;;;13.93;49.86;100666.75;5044689;28;20231;-79
2023/05/20 03:50:10;;;;;;;3.10;1.65;;;;;;;13.91;49.79;100665.97;5029827;28;20157;-79
2023/05/20 03:52:37;;;;;;;2.20;1.45;;;;;;;13.89;49.80;100670.53;5028762;28;20137;-79
2023/05/20 03:55:03;;;;;;;4.55;2.03;;;;;;;13.88;49.86;100670.59;5029507;28;20336;-79
2023/05/20 03:57:31;;;;;;;5.65;1.83;;;;;;;13.87;49.89;100679.50;5029237;28;20064;-79
2023/05/20 03:59:57;;;;;;;3.22;1.90;;;;;;;13.84;50.02;100680.50;5029689;28;20152;-79
2023/05/20 04:02:23;;;;;;;3.42;2.25;;;;;;;13.82;50.23;100677.09;5029634;28;20057;-79
2023/05/20 04:04:51;;;;;;;4.57;2.45;;;;;;;13.80;50.29;100679.81;5029555;28;20066;-79
2023/05/20 04:07:18;;;;;;;2.70;1.73;;;;;;;13.79;50.34;100677.25;5029336;28;20057;-79
2023/05/20 04:09:45;;;;;;;5.32;2.22;;;;;;;13.78;50.47;100675.56;5029943;28;20057;-79
2023/05/20 04:12:12;;;;;;;4.07;1.85;;;;;;;13.78;50.53;100672.91;5029685;28;20060;-79
2023/05/20 04:14:40;;;;;;;4.35;1.80;;;;;;;13.79;50.42;100686.06;5028321;28;20072;-80
2023/05/20 04:17:08;;;;;;;4.72;2.05;;;;;;;13.80;50.45;100684.28;5028712;28;20088;-80
2023/05/20 04:19:35;;;;;;;2.35;1.70;;;;;;;13.81;50.44;100688.63;5029755;28;20072;-78
2023/05/20 04:22:01;;;;;;;3.47;1.88;;;;;;;13.82;50.46;100682.38;5029664;28;20061;-80
2023/05/20 04:24:27;;;;;;;2.75;1.83;;;;;;;13.83;50.60;100685.88;5029628;28;20487;-80
2023/05/20 04:26:54;;;;;;;3.88;1.90;;;;;;;13.84;50.55;100688.47;5027496;28;20058;-80
2023/05/20 04:29:20;;;;;;;3.05;1.80;;;;;;;13.85;50.57;100692.81;5029353;28;20049;-79
2023/05/20 04:31:47;;;;;;;4.50;2.10;;;;;;;13.86;50.48;100691.84;5029313;28;20063;-80
2023/05/20 04:34:13;;;;;;;2.40;1.88;;;;;;;13.89;50.41;100691.69;5044852;28;20061;-79
2023/05/20 04:36:40;;;;;;;5.78;1.88;;;;;;;13.91;50.36;100689.81;5043906;28;20061;-80
2023/05/20 04:39:07;;;;;;;5.05;1.88;;;;;;;13.92;50.36;100683.59;5029565;28;20073;-79
2023/05/20 04:41:35;;;;;;;3.42;1.88;;;;;;;13.93;50.33;100695.88;5030895;28;20063;-79
2023/05/20 04:44:02;;;;;;;5.72;1.80;;;;;;;13.94;50.17;100694.94;5032915;28;20053;-79
2023/05/20 04:46:32;;;;;;;4.10;1.80;;;;;;;13.96;50.30;100693.97;5031605;28;20088;-81
2023/05/20 04:48:59;;;;;;;3.78;1.70;;;;;;;13.96;50.10;100686.03;5048471;28;20056;-81
2023/05/20 04:51:25;;;;;;;3.30;1.95;;;;;;;13.97;50.31;100678.03;5033328;28;20061;-85
2023/05/20 04:53:52;;;;;;;3.50;1.75;;;;;;;13.99;50.01;100683.22;5031878;28;20054;-80
2023/05/20 04:56:18;;;;;;;2.55;1.42;;;;;;;14.02;50.00;100683.06;5032424;28;20057;-80
2023/05/20 04:58:44;;;;;;;5.38;1.88;;;;;;;14.04;50.07;100679.38;5047789;28;20050;-80
2023/05/20 05:01:11;;;;;;;3.45;1.70;;;;;;;14.07;49.77;100675.72;5032938;28;20057;-80
2023/05/20 05:03:37;;;;;;;2.40;1.70;;;;;;;14.10;49.78;100672.91;5032999;28;20054;-80
2023/05/20 05:06:04;;;;;;;3.45;1.73;;;;;;;14.12;50.00;100686.88;5032344;28;20054;-80
2023/05/20 05:08:30;;;;;;;4.82;1.70;;;;;;;14.16;49.79;100682.25;5032104;28;20140;-80
2023/05/20 05:10:57;;;;;;;2.50;1.55;;;;;;;14.20;49.72;100678.50;5032548;28;20089;-80
2023/05/20 05:13:23;;;;;;;4.63;1.80;;;;;;;14.23;49.77;100682.75;5032416;28;20050;-80
2023/05/20 05:16:08;;;;;;;3.22;1.90;;;;;;;14.23;49.81;100677.47;5047558;28;20115;-80
2023/05/20 05:18:34;;;;;;;4.95;1.77;;;;;;;14.30;49.26;100679.69;5030790;28;20053;-80
2023/05/20 05:21:02;;;;;;;2.88;1.60;;;;;;;14.32;49.24;100680.44;5032477;28;20046;-79
2023/05/20 05:23:29;;;;;;;6.78;2.00;;;;;;;14.36;49.25;100673.19;5032107;28;20061;-80
2023/05/20 05:25:56;;;;;;;3.28;1.60;;;;;;;14.39;49.22;100672.16;5031068;28;20054;-79
2023/05/20 05:28:22;;;;;;;3.10;1.70;;;;;;;14.42;49.20;100670.16;5030794;28;20049;-80
2023/05/20 05:30:49;;;;;;;3.00;1.77;;;;;;;14.46;49.12;100673.47;5032367;28;20053;-80
2023/05/20 05:33:16;;;;;;;2.58;1.60;;;;;;;14.49;49.04;100664.50;5046550;28;20547;-80
2023/05/20 05:35:43;;;;;;;3.63;1.88;;;;;;;14.52;49.01;100664.31;5031745;28;20478;-80
2023/05/20 05:38:09;;;;;;;4.40;1.65;;;;;;;14.57;49.06;100664.91;5031734;28;20100;-81
2023/05/20 05:40:36;;;;;;;2.08;1.60;;;;;;;14.61;49.09;100665.59;5031876;28;20061;-80
2023/05/20 05:43:02;;;;;;;2.78;1.50;;;;;;;14.63;48.76;100661.03;5032093;28;20056;-80
2023/05/20 05:45:29;;;;;;;4.15;1.90;;;;;;;14.66;48.83;100659.03;5031815;28;20057;-80
2023/05/20 05:47:55;;;;;;;3.72;1.60;;;;;;;14.69;48.93;100661.53;5031525;28;20153;-80
2023/05/20 05:50:22;;;;;;;2.50;1.95;;;;;;;14.73;48.78;100667.50;5031875;28;20068;-80
2023/05/20 05:52:48;;;;;;;4.28;1.73;;;;;;;14.78;48.79;100667.25;5031509;28;20057;-80
2023/05/20 05:55:15;;;;;;;4.20;1.80;;;;;;;14.81;48.61;100665.25;5046900;28;20483;-80
2023/05/20 05:57:41;;;;;;;3.63;1.58;;;;;;;14.87;48.80;100665.84;5031345;28;20057;-80
2023/05/20 06:00:09;;;;;;;3.42;1.60;;;;;;;14.90;48.52;100663.84;5046552;28;20119;-80
2023/05/20 06:02:35;;;;;;;2.80;1.90;;;;;;;14.95;48.62;100664.41;5031095;28;20069;-80
2023/05/20 06:05:02;;;;;;;2.03;1.65;;;;;;;15.01;48.66;100667.63;5030389;28;20554;-80
2023/05/20 06:07:29;;;;;;;3.20;1.67;;;;;;;15.04;48.54;100665.69;5029314;28;20071;-80
2023/05/20 06:09:56;;;;;;;2.50;1.83;;;;;;;15.10;48.57;100669.72;5030870;28;20057;-80
2023/05/20 06:12:22;;;;;;;3.95;2.05;;;;;;;15.13;48.64;100664.25;5030992;28;20057;-80
2023/05/20 06:14:48;;;;;;;3.05;1.80;;;;;;;15.19;48.54;100669.19;5031150;28;20049;-80
2023/05/20 06:17:15;;;;;;;2.28;1.70;;;;;;;15.22;48.53;100665.47;5031079;28;20054;-80
2023/05/20 06:19:41;;;;;;;4.32;2.00;;;;;;;15.27;48.62;100665.19;5031498;28;20669;-80
2023/05/20 06:22:08;;;;;;;5.75;2.05;;;;;;;15.31;48.60;100661.38;5031375;28;20115;-80
2023/05/20 06:24:34;;;;;;;3.47;2.00;;;;;;;15.34;48.19;100648.81;5031363;28;20408;-80
2023/05/20 06:27:01;;;;;;;2.67;1.88;;;;;;;15.38;48.21;100649.44;5030403;28;20499;-80
2023/05/20 06:29:28;;;;;;;2.97;2.05;;;;;;;15.42;48.11;100650.97;5031350;28;20144;-80
2023/05/20 06:31:55;;;;;;;4.00;1.90;;;;;;;15.45;48.18;100656.09;5031362;28;20054;-80
2023/05/20 06:34:21;;;;;;;7.05;2.05;;;;;;;15.47;48.15;100656.81;5031164;28;20053;-80
2023/05/20 06:36:47;;;;;;;2.83;1.98;;;;;;;15.52;48.05;100653.03;5030290;28;20057;-80
2023/05/20 06:39:14;;;;;;;2.65;2.08;;;;;;;15.53;48.23;100652.06;5031327;28;20053;-80
2023/05/20 06:41:40;;;;;;;4.82;2.50;;;;;;;15.56;48.27;100650.09;5031365;28;20068;-80
2023/05/20 06:44:07;;;;;;;2.88;2.20;;;;;;;15.59;48.38;100652.53;5031857;28;20068;-80
2023/05/20 06:46:33;;;;;;;2.83;2.03;;;;;;;15.63;48.23;100645.25;5030224;28;20053;-80
2023/05/20 06:49:00;;;;;;;2.92;2.05;;;;;;;15.67;48.13;100654.72;5030752;28;20054;-80
2023/05/20 06:51:27;;;;;;;4.65;2.38;;;;;;;15.71;48.33;100636.78;5046359;28;20057;-80
2023/05/20 06:53:53;;;;;;;5.97;2.13;;;;;;;15.76;48.46;100642.63;5029633;28;20522;-80
2023/05/20 06:58:50;;;;;;;2.63;2.00;;;;;;;15.88;47.96;100628.56;5024187;22;20459;-77
2023/05/20 07:01:17;;;;;;;4.70;2.10;;;;;;;15.95;47.86;100620.22;5051261;28;20045;-77
2023/05/20 07:03:44;;;;;;;3.85;1.90;;;;;;;15.99;47.83;100624.38;5050506;28;20045;-77
2023/05/20 07:06:10;;;;;;;2.60;2.15;;;;;;;16.02;47.59;100627.69;5050707;28;20056;-77
2023/05/20 07:08:37;;;;;;;3.50;2.25;;;;;;;16.05;47.71;100623.13;5050411;28;20045;-77
2023/05/20 07:11:03;;;;;;;2.75;2.00;;;;;;;16.09;47.65;100628.16;5050897;28;20149;-77
2023/05/20 07:13:30;;;;;;;2.95;1.90;;;;;;;16.13;47.70;100627.00;5051046;28;20057;-77
2023/05/20 07:15:56;;;;;;;5.80;2.10;;;;;;;16.18;47.81;100631.97;5050524;28;20059;-77
2023/05/20 07:18:23;;;;;;;2.53;2.08;;;;;;;16.25;47.71;100622.66;5050478;28;20053;-77
2023/05/20 07:20:49;;;;;;;5.63;2.42;;;;;;;16.31;48.17;100629.38;5050705;28;20049;-77
2023/05/20 07:23:16;;;;;;;3.17;2.03;;;;;;;16.38;47.36;100619.16;5049489;28;20056;-77
2023/05/20 07:25:42;;;;;;;4.07;2.00;;;;;;;16.45;47.78;100623.09;5049145;28;20064;-77
2023/05/20 07:28:09;;;;;;;4.60;2.08;;;;;;;16.52;47.66;100624.38;5050286;28;20061;-77
2023/05/20 07:30:35;;;;;;;2.83;1.90;;;;;;;16.58;47.35;100622.25;5050727;28;20080;-79
2023/05/20 07:33:02;;;;;;;2.33;1.65;;;;;;;16.63;47.16;100622.81;5050660;28;20513;-80
2023/05/20 07:35:28;;;;;;;5.03;1.95;;;;;;;16.66;47.21;100617.28;5050265;28;20085;-76
2023/05/20 07:37:55;;;;;;;4.82;2.30;;;;;;;16.70;46.86;100616.09;5050018;28;20053;-79
2023/05/20 07:40:21;;;;;;;5.07;1.98;;;;;;;16.72;47.42;100608.88;5049380;28;20056;-78
2023/05/20 07:42:48;;;;;;;3.13;2.10;;;;;;;16.75;47.43;100602.50;5050726;28;20114;-78
2023/05/20 07:45:14;;;;;;;2.95;2.17;;;;;;;16.82;47.31;100611.72;5050018;28;20053;-79
2023/05/20 07:47:41;;;;;;;4.90;2.13;;;;;;;16.87;47.19;100617.59;5050069;28;20160;-79
2023/05/20 07:50:08;;;;;;;4.85;2.30;;;;;;;16.93;47.23;100614.50;5050229;28;20059;-79
2023/05/20 07:52:34;;;;;;;5.07;2.13;;;;;;;16.99;47.18;100613.22;5050531;28;20056;-78
2023/05/20 07:55:21;;;;;;;2.10;1.90;;;;;;;17.06;47.30;100611.88;5049166;28;20053;-79
2023/05/20 07:57:48;;;;;;;3.17;1.95;;;;;;;17.15;47.08;100612.16;5048853;28;20061;-79
2023/05/20 08:00:14;;;;;;;3.13;2.10;;;;;;;17.23;47.08;100612.47;5050286;28;20057;-79
2023/05/20 08:02:41;;;;;;;5.22;2.08;;;;;;;17.31;47.12;100614.59;5048855;28;20053;-80
2023/05/20 08:05:08;;;;;;;4.60;2.20;;;;;;;17.38;47.32;100620.31;5049721;28;20509;-79
2023/05/20 08:07:34;;;;;;;4.30;2.00;;;;;;;17.46;46.75;100609.97;5049677;28;20045;-78
2023/05/20 08:10:01;;;;;;;3.95;1.88;;;;;;;17.53;46.96;100613.03;5050220;28;20071;-79
2023/05/20 08:12:27;;;;;;;3.13;1.70;;;;;;;17.60;46.73;100610.78;5048968;28;20132;-79
2023/05/20 08:14:53;;;;;;;3.50;1.70;;;;;;;17.67;46.92;100596.03;5049662;28;20512;-79
2023/05/20 08:17:20;;;;;;;4.30;2.45;;;;;;;17.77;46.52;100593.53;5052493;28;20080;-79
2023/05/20 08:19:46;;;;;;;4.80;2.00;;;;;;;17.87;46.55;100593.72;5053096;28;20111;-78
2023/05/20 08:22:13;;;;;;;4.63;2.22;;;;;;;17.95;46.75;100588.66;5054219;28;20136;-79
2023/05/20 08:24:40;;;;;;;2.53;1.65;;;;;;;18.04;46.72;100585.31;5054109;28;20053;-78
2023/05/20 08:27:06;;;;;;;5.03;1.95;;;;;;;18.13;46.71;100588.28;5052192;28;20057;-79
2023/05/20 08:29:33;;;;;;;2.05;1.75;;;;;;;18.22;46.57;100583.09;5053847;28;20075;-79
2023/05/20 08:31:59;;;;;;;1.73;1.38;;;;;;;18.32;46.58;100583.22;5053815;28;20099;-78
2023/05/20 08:34:26;;;;;;;4.00;1.90;;;;;;;18.41;46.01;100580.81;5053859;28;20508;-78
2023/05/20 08:36:53;;;;;;;3.17;1.80;;;;;;;18.49;45.49;100583.75;5053329;28;20093;-78
2023/05/20 08:39:19;;;;;;;3.25;1.60;;;;;;;18.57;45.53;100580.47;5053811;28;20460;-78
2023/05/20 08:41:47;;;;;;;2.08;1.45;;;;;;;18.63;45.51;100590.69;5053729;28;20049;-79
2023/05/20 08:44:13;;;;;;;2.15;1.65;;;;;;;18.67;45.06;100580.63;5053796;28;20052;-78
2023/05/20 08:46:40;;;;;;;4.25;1.85;;;;;;;18.71;45.17;100582.94;5053103;28;20056;-78
2023/05/20 08:49:07;;;;;;;4.05;1.70;;;;;;;18.74;44.92;100580.03;5053767;28;20056;-78
2023/05/20 08:51:36;;;;;;;2.03;1.63;;;;;;;18.79;45.02;100582.31;5053728;28;20130;-79
2023/05/20 08:54:02;;;;;;;2.53;1.52;;;;;;;18.87;45.14;100579.03;5053600;28;20060;-78
2023/05/20 08:56:31;;;;;;;3.45;1.60;;;;;;;18.91;44.64;100583.16;5053210;28;20088;-79
2023/05/20 08:58:58;;;;;;;1.50;1.40;;;;;;;18.98;44.88;100578.19;5053234;28;20148;-78
2023/05/20 09:01:25;;;;;;;2.67;1.90;;;;;;;19.06;44.71;100585.63;5053581;28;20052;-79
2023/05/20 09:03:52;;;;;;;3.42;2.30;;;;;;;19.13;44.48;100579.66;5053564;28;20147;-79
2023/05/20 09:06:19;;;;;;;6.35;1.98;;;;;;;19.20;44.60;100573.81;5053032;28;20063;-78
2023/05/20 09:08:49;;;;;;;4.32;1.48;;;;;;;19.25;44.24;100579.66;5053000;28;20084;-78
2023/05/20 09:11:15;;;;;;;3.08;1.58;;;;;;;19.31;44.13;100579.16;5053213;28;20049;-79
2023/05/20 09:13:42;;;;;;;4.55;1.83;;;;;;;19.38;44.23;100576.84;5053406;28;20114;-79
2023/05/20 09:16:10;;;;;;;4.35;1.95;;;;;;;19.44;43.76;100570.97;5053041;28;20045;-78
2023/05/20 09:18:40;;;;;;;2.72;1.92;;;;;;;19.50;43.93;100569.63;5051495;28;20060;-79
2023/05/20 09:21:09;;;;;;;3.65;1.80;;;;;;;19.57;43.89;100573.50;5053255;28;20047;-79
2023/05/20 09:23:37;;;;;;;4.88;1.92;;;;;;;19.64;44.30;100566.69;5053104;28;20052;-78
2023/05/20 09:26:04;;;;;;;1.83;1.55;;;;;;;19.71;44.21;100559.03;5051408;28;20067;-79
2023/05/20 09:28:31;;;;;;;2.95;1.75;;;;;;;19.78;44.16;100554.03;5052003;28;20406;-79
2023/05/20 09:30:58;;;;;;;4.50;1.90;;;;;;;19.87;44.23;100566.59;5052770;28;20076;-79
2023/05/20 09:33:30;;;;;;;4.55;1.70;;;;;;;19.93;44.36;100563.41;5052973;28;20048;-78
2023/05/20 09:36:03;;;;;;;7.15;2.00;;;;;;;20.02;44.23;100558.28;5052562;28;20060;-79
2023/05/20 09:38:36;;;;;;;4.22;1.80;;;;;;;20.11;44.04;100549.50;5052211;28;20425;-79
2023/05/20 09:41:07;;;;;;;8.80;1.55;;;;;;;20.22;43.27;100545.91;5053114;28;20056;-79
2023/05/20 09:43:35;;;;;;;2.47;1.73;;;;;;;20.32;43.45;100545.97;5052798;28;20052;-77
2023/05/20 09:46:03;;;;;;;3.15;1.70;;;;;;;20.39;43.30;100541.78;5052379;28;20052;-77
2023/05/20 09:48:30;;;;;;;3.63;1.73;;;;;;;20.48;43.65;100544.66;5052032;28;20497;-77
2023/05/20 09:51:01;;;;;;;2.50;1.70;;;;;;;20.54;42.97;100533.41;5052474;28;20135;-77
2023/05/20 09:53:28;;;;;;;2.80;1.60;;;;;;;20.62;43.06;100544.28;5051110;28;20052;-77
2023/05/20 09:55:55;;;;;;;2.10;1.58;;;;;;;20.69;43.08;100536.56;5052325;28;20144;-77
2023/05/20 09:58:22;;;;;;;3.00;1.77;;;;;;;;;;5051824;28;20056;-77
2023/05/20 10:00:49;;;;;;;4.35;1.70;;;;;;;20.81;42.78;100540.00;5052385;28;20053;-76
2023/05/20 10:03:17;;;;;;;4.63;1.95;;;;;;;20.88;43.23;100534.97;5052195;28;20091;-77
2023/05/20 10:06:01;;;;;;;5.60;2.70;;;;;;;20.94;43.30;100532.59;5051782;28;20460;-77
2023/05/20 10:08:38;;;;;;;;;;;;;;;21.04;43.38;100523.78;5052324;28;20134;-77
2023/05/20 10:11:18;;;;;;;4.15;1.45;;;;;;;21.14;42.83;100530.00;5052242;28;19921;-77
2023/05/20 10:14:04;;;;;;;2.03;1.45;;;;;;;21.18;42.11;100523.38;5051987;28;20053;-77
2023/05/20 10:16:36;;;;;;;4.70;1.90;;;;;;;21.27;41.96;100515.50;5051945;28;20083;-77
2023/05/20 10:19:06;;;;;;;5.90;1.60;;;;;;;21.31;41.97;100523.09;5052037;28;20130;-77
2023/05/20 10:21:32;;;;;;;1.95;1.40;;;;;;;21.40;42.57;100517.88;5052142;28;20049;-77
2023/05/20 10:24:06;;;;;;;2.83;1.35;;;;;;;21.44;41.85;100519.31;5051956;28;20057;-77
2023/05/20 10:26:38;;;;;;;4.30;1.45;;;;;;;21.55;41.25;100515.66;5050979;28;20056;-77
2023/05/20 10:29:17;;;;;;;4.03;1.42;;;;;;;21.60;41.23;100516.06;5050649;28;20191;-77
2023/05/20 10:31:47;;;;;;;4.18;1.55;;;;;;;21.70;41.17;100514.25;5051729;28;20118;-77
2023/05/20 10:34:19;;;;;;;5.00;1.50;;;;;;;21.81;40.88;100517.78;5051724;28;20053;-77
2023/05/20 10:36:57;;;;;;;3.10;1.35;;;;;;;21.90;40.37;100503.53;5050978;28;20067;-77
2023/05/20 10:39:34;;;;;;;1.63;1.42;;;;;;;22.01;40.19;100505.19;5050771;28;20095;-77
2023/05/20 10:42:07;;;;;;;4.10;1.40;;;;;;;22.16;40.10;100508.25;5051579;28;20055;-76
2023/05/20 10:44:44;;;;;;;2.78;1.38;;;;;;;22.35;40.16;100501.16;5050331;28;20064;-76
2023/05/20 10:47:12;;;;;;;3.25;1.42;;;;;;;22.63;40.53;100503.91;5050874;28;20498;-76
2023/05/20 10:49:45;;;;;;;2.67;1.42;;;;;;;22.95;40.49;100497.22;5051464;28;20529;-77
2023/05/20 10:52:18;;;;;;;2.00;1.40;;;;;;;23.37;39.71;100500.38;5051459;28;20091;-77
2023/05/20 10:55:04;;;;;;;;;;;;;;;23.76;41.29;100493.81;5051540;28;20099;-77
2023/05/20 10:57:33;;;;;;;2.33;1.05;;;;;;;24.38;40.06;100492.06;5050630;28;19925;-77
2023/05/20 11:00:00;;;;;;;2.30;1.10;;;;;;;24.87;39.17;100485.19;5051117;28;20148;-77
2023/05/20 11:02:27;;;;;;;7.43;1.50;;;;;;;25.31;37.90;100484.94;5051374;28;20057;-77
2023/05/20 11:04:57;;;;;;;2.90;1.30;;;;;;;25.68;36.29;100487.38;5050579;28;20045;-77
2023/05/20 11:07:29;;;;;;;2.03;1.30;;;;;;;25.98;36.25;100482.28;5050590;28;20489;-77
2023/05/20 11:09:57;;;;;;;4.18;1.42;;;;;;;26.23;35.99;100471.41;5051369;28;20056;-77
2023/05/20 11:12:24;;;;;;;2.63;1.50;;;;;;;26.47;35.78;100467.84;5050879;28;20056;-77
2023/05/20 11:14:51;;;;;;;1.83;0.98;;;;;;;26.63;34.77;100464.22;5050803;28;20087;-77
2023/05/20 11:17:19;;;;;;;3.38;1.20;;;;;;;26.69;34.10;100470.78;5050612;28;20135;-77
2023/05/20 11:19:46;;;;;;;4.32;1.30;;;;;;;26.71;34.34;100460.63;5050799;28;20091;-77
2023/05/20 11:22:13;;;;;;;1.70;1.23;;;;;;;26.69;34.33;100459.13;5050821;28;20089;-77
2023/05/20 11:24:40;;;;;;;1.90;1.00;;;;;;;26.60;33.55;100459.16;5050639;28;20095;-78
2023/05/20 11:27:06;;;;;;;2.53;1.10;;;;;;;26.45;33.35;100452.81;5050024;28;20092;-77
2023/05/20 11:29:33;;;;;;;2.17;1.45;;;;;;;26.28;33.54;100458.28;5050492;28;20126;-77
2023/05/20 11:32:00;;;;;;;3.05;1.40;;;;;;;26.11;34.23;100454.75;5050719;28;20060;-77
2023/05/20 11:34:35;;;;;;;1.90;1.33;;;;;;;25.92;33.80;100445.19;5050523;28;20084;-77